In Rescue
 
Open Full Screen Window  High Contrast Mode
Wind Gusting 15 knots
10
November 25, 2020 4:24 AM CST
Present Weather: Mist
Weather Information
Wind Direction
  330 °
Wind Speed
  10 kt (12 mph)
Wind Gust
  15 kt (17 mph)
Altimeter
29.89 in
Visibility
2 1/2 SM
Temperature
-01° C
30° F
Dewpoint
-01° C
30° F
Humidity
100%
1hr Rain Fall
00.00 in.
24hr Rain Fall
00.00 in.
Sky Condition
Overcast @ 200 ft
LIFR

METAR KMJQ 251024Z AUTO 33010G15KT 2 1/2SM BR OVC002 M01/M01 A2989 RMK AO2

FAA Disclaimer: The data displayed is for advisory purposes only and is not to be used for flight planning or operations.